Latest Weather Observations for Ballarat

IDV60801

Issued at 2:05 pm EDT Wednesday 26 November 2014 (issued every 30 minutes, with the page automatically refreshed every 10 minutes)

About weather observations | Map of weather stations | Latest weather observations for VIC | Other Formats
Station Details ID: 089002 Name: BALLARAT AERODROME Lat: -37.51 Lon: 143.79 Height: 435.2 m
Data from the previous 72 hours. | See also: Recent months at Ballarat
Date/Time
EDT
Temp
°C
App
Temp
°C
Dew
Point
Rel
Hum
%
Delta-T
°C
Wind Press
QNH
hPa
Press
MSL
hPa
Rain
since 9 am
mm
Dir
 
Spd
km/h
Gust
km/h
Spd
kts
Gust
kts
26/02:00pm 16.3 12.4 9.3 63 3.7 SSW 20 61 11 33 1022.1 1021.6 0.0
26/01:30pm 16.1 12.2 8.6 61 3.9 SW 19 26 10 14 1022.0 1021.5 0.0
26/01:00pm 17.2 13.6 9.9 62 3.9 SW 19 26 10 14 1022.1 1021.6 0.0
26/12:30pm 16.4 14.0 10.0 66 3.4 S 13 20 7 11 1022.2 1021.8 0.0
26/12:00pm 14.7 11.4 9.7 72 2.6 SSW 17 22 9 12 1022.4 1022.0 0.0
26/11:30am 13.6 9.4 8.2 70 2.8 S 20 26 11 14 1022.5 1022.1 0.0
26/11:00am 12.9 9.2 8.0 72 2.5 SSW 17 24 9 13 1022.3 1021.9 0.0
26/10:30am 13.2 9.4 7.6 69 2.8 S 17 24 9 13 1022.1 1021.6 0.0
26/10:00am 12.2 7.9 7.7 74 2.2 SSW 20 32 11 17 1022.0 1021.5 0.0
26/09:30am 11.4 7.3 7.9 79 1.7 SSW 19 30 10 16 1022.1 1021.6 0.0
26/09:00am 10.7 6.6 7.9 83 1.4 SSW 19 28 10 15 1022.0 1021.5 0.0
26/08:30am 9.8 7.0 8.7 93 0.6 SW 13 19 7 10 1021.9 1021.4 0.0
26/08:00am 8.8 6.7 8.2 96 0.3 SSW 9 15 5 8 1021.7 1021.2 0.0
26/07:30am 7.7 6.0 7.4 98 0.1 SSW 6 11 3 6 1021.3 1020.8 0.0
26/07:00am 7.0 4.6 6.9 99 0.0 SSW 9 11 5 6 1021.1 1020.6 0.0
26/06:30am 6.1 4.0 6.0 99 0.0 SSW 6 7 3 4 1020.8 1020.3 0.0
26/06:00am 4.8 2.3 4.5 98 0.1 S 7 9 4 5 1020.6 1020.1 0.0
26/05:30am 5.8 3.6 5.5 98 0.1 SSW 6 7 3 4 1020.4 1020.0 0.0
26/05:00am 6.6 4.6 6.3 98 0.1 S 6 7 3 4 1020.2 1019.8 0.0
26/04:30am 6.7 4.5 6.4 98 0.1 SSW 7 7 4 4 1020.2 1019.8 0.0
26/04:00am 6.2 4.1 5.9 98 0.1 S 6 7 3 4 1020.2 1019.8 0.0
26/03:30am 7.0 4.9 6.7 98 0.1 SSW 7 11 4 6 1020.4 1020.0 0.0
26/03:00am 6.5 4.3 6.2 98 0.1 SSW 7 11 4 6 1020.3 1019.9 0.0
26/02:30am 7.0 4.9 6.7 98 0.1 SSW 7 9 4 5 1020.7 1020.2 0.0
26/02:00am 7.0 4.9 6.7 98 0.1 SSW 7 9 4 5 1020.8 1020.3 0.0
26/01:30am 7.1 5.0 6.8 98 0.1 S 7 9 4 5 1021.0 1020.5 0.0
26/01:00am 6.3 4.1 5.3 93 0.4 SSE 6 7 3 4 1021.3 1020.8 0.0
26/12:42am 7.1 5.0 6.0 93 0.5 S 6 7 3 4 1021.5 1021.0 0.0
26/12:30am 7.3 5.0 5.6 89 0.8 S 7 11 4 6 1021.5 1021.0 0.0
26/12:23am 8.0 5.9 6.6 91 0.7 SSW 7 11 4 6 1021.6 1021.1 0.0
26/12:00am 7.7 5.6 6.5 92 0.6 S 7 11 4 6 1021.7 1021.2 0.0
 
Date/Time
EDT
Temp
°C
App
Temp
°C
Dew
Point
Rel
Hum
%
Delta-T
°C
Wind Press
QNH
hPa
Press
MSL
hPa
Rain
since 9 am
mm
Dir
 
Spd
km/h
Gust
km/h
Spd
kts
Gust
kts
25/11:30pm 8.5 5.9 6.3 86 1.0 S 9 13 5 7 1021.8 1021.3 0.0
25/11:00pm 9.1 5.9 6.7 85 1.1 SSW 13 17 7 9 1021.9 1021.4 0.0
25/10:30pm 8.7 5.9 6.8 88 0.9 S 11 13 6 7 1022.0 1021.5 0.0
25/10:00pm 9.8 6.2 6.7 81 1.5 S 15 20 8 11 1021.9 1021.4 0.0
25/09:30pm 10.4 7.2 6.9 79 1.7 SSW 13 20 7 11 1021.6 1021.1 0.0
25/09:00pm 11.0 7.1 6.9 76 2.0 SSW 17 24 9 13 1021.5 1021.0 0.0
25/08:30pm 12.0 7.7 6.9 71 2.5 SSW 19 26 10 14 1021.1 1020.6 0.0
25/08:00pm 13.6 9.2 6.7 63 3.4 SSW 19 24 10 13 1020.6 1020.1 0.0
25/07:30pm 15.6 12.0 4.9 49 5.2 SSW 13 19 7 10 1020.1 1019.6 0.0
25/07:00pm 15.9 11.4 4.0 45 5.6 SW 17 22 9 12 1019.9 1019.4 0.0
25/06:30pm 16.8 11.6 3.5 41 6.3 WSW 20 32 11 17 1019.5 1019.0 0.0
25/06:00pm 17.9 12.6 4.8 42 6.4 WSW 22 32 12 17 1019.4 1018.9 0.0
25/05:30pm 16.8 10.8 3.5 41 6.3 WSW 24 33 13 18 1019.4 1018.9 0.0
25/05:00pm 16.8 12.5 5.1 46 5.7 WSW 17 24 9 13 1019.4 1018.9 0.0
25/04:30pm 17.0 11.3 5.0 45 5.9 WSW 24 37 13 20 1019.4 1018.9 0.0
25/04:00pm 17.5 11.3 4.1 41 6.4 W 26 35 14 19 1019.4 1018.9 0.0
25/03:30pm 16.5 11.5 4.5 45 5.8 WSW 20 32 11 17 1019.6 1019.1 0.0
25/03:00pm 17.2 11.6 5.2 45 5.9 WSW 24 33 13 18 1019.6 1019.1 0.0
25/02:30pm 16.5 10.9 3.6 42 6.1 W 22 33 12 18 1019.6 1019.1 0.0
25/02:00pm 16.6 10.3 5.6 48 5.4 W 28 39 15 21 1019.7 1019.2 0.0
25/01:30pm 16.8 11.1 4.8 45 5.8 W 24 37 13 20 1019.8 1019.3 0.0
25/01:00pm 16.0 9.9 4.7 47 5.4 WSW 26 37 14 20 1019.9 1019.4 0.0
25/12:30pm 14.3 7.7 4.3 51 4.7 WSW 28 37 15 20 1020.0 1019.5 0.0
25/12:00pm 15.5 9.4 4.8 49 5.1 WSW 26 37 14 20 1020.0 1019.5 0.0
25/11:30am 14.2 8.6 3.4 48 5.0 WSW 22 32 12 17 1019.9 1019.4 0.0
25/11:00am 14.1 9.2 6.7 61 3.7 WSW 22 33 12 18 1019.8 1019.3 0.0
25/10:30am 12.8 8.2 6.6 66 3.0 WSW 20 30 11 16 1020.0 1019.5 0.0
25/10:00am 11.8 6.6 7.3 74 2.2 WSW 24 33 13 18 1019.9 1019.4 0.0
25/09:30am 11.4 5.8 7.1 75 2.1 W 26 33 14 18 1019.8 1019.3 0.0
25/09:06am 10.2 5.2 8.0 86 1.1 W 24 33 13 18 1019.5 1019.0 0.0
25/09:00am 10.5 5.5 8.1 85 1.2 W 24 33 13 18 1019.4 1018.9 11.2
25/08:30am 9.9 5.9 9.0 94 0.5 W 20 30 11 16 1019.0 1018.5 11.2
25/08:00am 9.3 5.9 9.0 98 0.2 WSW 17 30 9 16 1018.7 1018.2 11.2
25/07:41am 8.5 4.9 8.4 99 0.0 W 17 24 9 13 1018.3 1017.7 11.2
25/07:33am 8.1 4.4 8.0 99 0.0 W 17 24 9 13 1018.2 1017.6 11.2
25/07:30am 7.9 4.5 7.8 99 0.0 W 15 24 8 13 1018.2 1017.6 11.2
25/07:00am 7.5 4.8 7.4 99 0.0 WSW 11 17 6 9 1017.5 1017.0 11.2
25/06:37am 6.8 4.3 6.7 99 0.0 WSW 9 13 5 7 1017.2 1016.7 11.2
25/06:30am 6.8 4.3 6.7 99 0.0 WSW 9 13 5 7 1017.1 1016.6 11.2
25/06:00am 5.6 4.2 5.5 99 0.0 SW 2 7 1 4 1016.6 1016.1 11.2
25/05:30am 5.5 3.1 5.4 99 0.0 W 7 9 4 5 1016.3 1015.7 11.2
25/05:00am 5.1 3.9 4.8 98 0.1 CALM 0 0 0 0 1016.0 1015.4 11.2
25/04:30am 5.8 3.5 5.5 98 0.1 S 7 13 4 7 1015.9 1015.3 11.2
25/04:00am 6.0 3.3 5.7 98 0.1 SW 9 15 5 8 1015.7 1015.1 11.2
25/03:30am 6.6 3.3 6.3 98 0.1 W 13 20 7 11 1015.5 1015.0 11.0
25/03:00am 6.8 3.1 6.5 98 0.1 W 15 20 8 11 1015.7 1015.1 11.0
25/02:30am 7.0 3.0 6.6 97 0.2 W 17 24 9 13 1015.7 1015.1 11.0
25/02:00am 6.9 4.2 5.8 93 0.5 W 9 15 5 8 1015.8 1015.2 11.0
25/01:30am 7.0 4.0 5.8 92 0.6 W 11 15 6 8 1015.7 1015.1 11.0
25/01:00am 7.9 4.9 6.2 89 0.8 WSW 11 13 6 7 1015.5 1015.0 11.0
25/12:30am 7.5 4.1 6.1 91 0.7 WSW 13 19 7 10 1015.3 1014.8 11.0
25/12:00am 7.6 4.4 6.7 94 0.4 WSW 13 17 7 9 1015.2 1014.7 11.0
 
Date/Time
EDT
Temp
°C
App
Temp
°C
Dew
Point
Rel
Hum
%
Delta-T
°C
Wind Press
QNH
hPa
Press
MSL
hPa
Rain
since 9 am
mm
Dir
 
Spd
km/h
Gust
km/h
Spd
kts
Gust
kts
24/11:30pm 7.9 5.5 6.8 93 0.5 SW 9 13 5 7 1015.0 1014.5 11.0
24/11:00pm 8.3 5.9 6.8 90 0.7 SW 9 13 5 7 1014.8 1014.3 11.0
24/10:30pm 8.8 6.0 7.1 89 0.8 SW 11 15 6 8 1014.8 1014.3 11.0
24/10:00pm 9.8 6.0 7.4 85 1.2 SW 17 32 9 17 1014.6 1014.1 11.0
24/09:30pm 10.1 7.0 7.2 82 1.4 SW 13 19 7 10 1014.0 1013.4 11.0
24/09:00pm 10.6 8.0 9.2 91 0.7 SSW 13 24 7 13 1013.5 1012.9 11.0
24/08:30pm 10.8 7.9 9.7 93 0.6 SSW 15 20 8 11 1012.8 1012.3 11.0
24/08:00pm 11.1 8.7 10.2 94 0.5 SSW 13 22 7 12 1012.3 1011.7 11.0
24/07:30pm 11.2 9.1 9.9 92 0.7 SW 11 19 6 10 1011.8 1011.2 11.0
24/07:00pm 10.7 8.0 9.1 90 0.8 SW 13 17 7 9 1011.8 1011.2 11.0
24/06:36pm 10.7 7.7 9.1 90 0.8 SSW 15 26 8 14 1011.5 1010.9 11.0
24/06:30pm 10.6 7.2 9.0 90 0.8 SSW 17 26 9 14 1011.2 1010.6 11.0
24/06:00pm 10.3 6.1 9.8 97 0.3 SW 22 32 12 17 1010.2 1009.6 11.0
24/05:30pm 11.6 6.7 11.4 99 0.1 SSW 28 44 15 24 1009.6 1009.0 11.0
24/05:21pm 12.1 6.6 11.8 98 0.2 SW 32 50 17 27 1009.2 1008.6 11.0
24/05:12pm 14.0 9.3 12.0 88 1.1 SW 28 50 15 27 1008.7 1008.1 11.0
24/05:00pm 15.6 12.2 12.5 82 1.7 SW 22 35 12 19 1008.1 1007.5 11.0
24/04:30pm 15.5 12.5 12.1 80 1.9 SW 19 28 10 15 1008.2 1007.6 11.0
24/04:00pm 15.1 12.1 12.6 85 1.4 SSW 20 28 11 15 1008.2 1007.6 11.0
24/03:56pm 15.3 12.7 13.3 88 1.1 SSW 19 28 10 15 1008.4 1007.7 11.0
24/03:30pm 14.8 11.7 14.6 99 0.1 WSW 24 35 13 19 1008.5 1007.9 11.0
24/03:00pm 14.4 11.2 14.2 99 0.1 SW 24 30 13 16 1008.2 1007.6 11.0
24/02:30pm 15.7 14.7 15.7 100 0.0 W 15 24 8 13 1008.1 1007.5 11.0
24/02:20pm 15.8 15.3 15.8 100 0.0 W 13 17 7 9 1008.2 1007.6 11.0
24/02:16pm 15.6 15.0 15.6 100 0.0 W 13 17 7 9 1008.4 1007.7 11.0
24/02:00pm 15.9 15.4 15.9 100 0.0 WNW 13 17 7 9 1008.6 1008.0 10.4
24/01:59pm 15.9 15.4 15.9 100 0.0 WNW 13 17 7 9 1008.7 1008.1 10.4
24/01:36pm 15.8 15.9 15.6 99 0.1 W 9 13 5 7 1008.5 1007.9 10.0
24/01:30pm 15.9 15.3 15.7 99 0.1 W 13 19 7 10 1008.6 1008.0 10.0
24/01:22pm 15.9 14.6 15.7 99 0.1 W 17 24 9 13 1008.9 1008.3 9.2
24/01:00pm 16.4 16.0 16.2 99 0.1 N 13 17 7 9 1008.0 1007.4 7.8
24/12:30pm 15.9 15.3 15.7 99 0.1 NNW 13 17 7 9 1009.0 1008.4 7.8
24/12:00pm 15.8 15.2 15.6 99 0.1 N 13 17 7 9 1009.1 1008.5 7.4
24/11:33am 15.7 14.3 15.5 99 0.1 NNE 17 24 9 13 1009.4 1008.8 7.2
24/11:30am 15.7 14.7 15.5 99 0.1 NNE 15 22 8 12 1009.4 1008.8 7.2
24/11:12am 15.0 12.9 14.8 99 0.1 NE 19 20 10 11 1009.9 1009.3 6.4
24/11:04am 15.3 13.7 15.0 98 0.2 NW 17 22 9 12 1012.0 1011.4 4.4
24/11:00am 15.4 14.2 15.1 98 0.2 NNW 15 19 8 10 1011.5 1010.9 3.6
24/10:30am 15.7 14.5 15.1 96 0.4 NNE 15 19 8 10 1009.9 1009.3 2.8
24/10:27am 15.6 14.2 14.6 94 0.6 NNE 15 19 8 10 1009.9 1009.3 2.8
24/10:01am 15.9 15.4 12.5 80 1.9 W 7 17 4 9 1010.6 1010.1 1.0
24/10:00am 16.0 15.5 12.2 78 2.1 WSW 6 15 3 8 1010.4 1009.9 1.0
24/09:30am 16.5 14.7 12.1 75 2.5 NNE 13 17 7 9 1009.9 1009.3 0.0
24/09:00am 16.0 15.2 12.9 82 1.8 N 9 13 5 7 1010.2 1009.6 0.0
24/08:30am 16.4 13.4 12.0 75 2.5 WNW 19 24 10 13 1011.1 1010.5 0.0
24/08:00am 16.3 13.2 11.5 73 2.7 NW 19 19 10 10 1010.9 1010.3 0.0
24/07:32am 18.6 12.9 8.3 51 5.4 WNW 28 46 15 25 1010.9 1010.3 0.0
24/07:30am 18.7 13.3 8.1 50 5.6 WNW 26 46 14 25 1010.7 1010.2 0.0
24/07:28am 17.9 13.8 8.5 54 4.9 NW 20 33 11 18 1011.0 1010.4 0.0
24/07:22am 18.8 11.4 8.5 51 5.5 W 37 46 20 25 1011.1 1010.5 0.0
24/07:20am 19.8 13.3 8.2 47 6.1 NW 32 39 17 21 1010.3 1009.7 0.0
24/07:00am 19.4 12.7 7.5 46 6.2 NNE 32 43 17 23 1007.7 1007.1 0.0
24/06:30am 18.7 13.6 7.5 48 5.8 NNE 24 35 13 19 1007.9 1007.3 0.0
24/06:00am 17.3 13.1 7.6 53 5.0 N 19 24 10 13 1008.4 1007.7 0.0
24/05:30am 17.0 13.3 7.9 55 4.7 NNE 17 22 9 12 1008.4 1007.7 0.0
24/05:00am 14.2 11.6 9.2 72 2.6 N 13 17 7 9 1008.9 1008.3 0.0
24/04:30am 15.1 13.4 7.6 61 3.8 NW 6 7 3 4 1009.8 1009.2 0.0
24/04:00am 13.8 11.9 7.6 66 3.1 NNE 7 9 4 5 1009.3 1008.7 0.0
24/03:30am 14.2 11.6 7.9 66 3.2 NE 11 15 6 8 1009.5 1008.9 0.0
24/03:00am 13.6 11.9 7.4 66 3.1 NNE 6 9 3 5 1009.9 1009.3 0.0
24/02:30am 13.4 11.6 7.8 69 2.8 NNE 7 11 4 6 1010.5 1010.0 0.0
24/02:00am 13.9 13.6 8.5 70 2.8 CALM 0 6 0 3 1010.7 1010.2 0.0
24/01:30am 14.4 14.1 8.8 69 2.9 CALM 0 6 0 3 1011.3 1010.7 0.0
24/01:00am 14.2 12.9 9.2 72 2.6 ESE 6 9 3 5 1011.6 1011.0 0.0
24/12:30am 15.0 14.1 10.6 75 2.4 ESE 6 7 3 4 1011.7 1011.1 0.0
24/12:00am 14.6 13.8 11.2 80 1.9 ESE 6 7 3 4 1012.3 1011.7 0.0
 
Date/Time
EDT
Temp
°C
App
Temp
°C
Dew
Point
Rel
Hum
%
Delta-T
°C
Wind Press
QNH
hPa
Press
MSL
hPa
Rain
since 9 am
mm
Dir
 
Spd
km/h
Gust
km/h
Spd
kts
Gust
kts
23/11:30pm 15.6 16.1 11.6 77 2.2 CALM 0 0 0 0 1012.9 1012.4 0.0
23/11:00pm 14.8 13.9 11.4 80 1.9 E 7 9 4 5 1013.0 1012.5 0.0
23/10:30pm 14.9 13.6 11.3 79 2.0 E 9 9 5 5 1013.7 1013.1 0.0
23/10:00pm 15.5 14.2 11.1 75 2.4 SE 9 11 5 6 1013.8 1013.2 0.0
23/09:30pm 16.4 15.1 11.3 72 2.8 SE 9 13 5 7 1013.7 1013.1 0.0
23/09:00pm 17.1 15.1 11.4 69 3.2 E 13 19 7 10 1013.3 1012.7 0.0
23/08:30pm 17.6 13.9 11.4 67 3.4 ESE 22 28 12 15 1012.7 1012.2 0.0
23/08:00pm 18.8 15.4 11.1 61 4.3 ESE 20 30 11 16 1012.2 1011.6 0.0
23/07:30pm 20.6 17.7 11.0 54 5.4 ESE 17 20 9 11 1012.2 1011.6 0.0
23/07:00pm 21.4 18.1 10.9 51 5.9 E 19 24 10 13 1012.1 1011.5 0.0
23/06:30pm 24.1 21.6 4.0 27 10.1 SW 6 13 3 7 1012.2 1011.6 0.0
23/06:00pm 24.7 21.4 4.5 27 10.3 SW 11 17 6 9 1012.3 1011.7 0.0
23/05:30pm 24.9 20.6 3.0 24 10.9 SW 15 22 8 12 1012.3 1011.7 0.0
23/05:00pm 25.3 21.0 3.3 24 11.0 SW 15 22 8 12 1012.3 1011.7 0.0
23/04:30pm 26.3 20.8 4.1 24 11.3 SW 22 30 12 16 1012.2 1011.6 0.0
23/04:00pm 26.8 22.1 5.1 25 11.3 WSW 19 32 10 17 1011.7 1011.1 0.0
23/03:30pm 26.2 22.1 6.3 28 10.6 WSW 17 24 9 13 1011.7 1011.1 0.0
23/03:00pm 25.8 21.5 6.9 30 10.1 SW 19 28 10 15 1011.6 1011.0 0.0
23/02:30pm 25.8 22.0 7.4 31 9.9 WSW 17 24 9 13 1011.7 1011.1 0.0

Other Formats:

Comma delimited format used in spreadsheet applications
http://www.bom.gov.au/fwo/IDV60801/IDV60801.94852.axf

JavaScript Object Notation format (JSON) in row-major order
http://www.bom.gov.au/fwo/IDV60801/IDV60801.94852.json